createdAt,value
2018-01-16T00:01:13.797Z,8.40
2018-01-16T00:03:41.291Z,8.30
2018-01-16T00:06:08.817Z,8.20
2018-01-16T00:08:36.313Z,8.10
2018-01-16T00:11:03.801Z,8.00
2018-01-16T00:13:31.302Z,7.90
2018-01-16T00:15:58.790Z,7.90
2018-01-16T00:18:26.302Z,7.80
2018-01-16T00:20:54.545Z,7.70
2018-01-16T00:23:22.041Z,7.70
2018-01-16T00:25:49.533Z,7.70
2018-01-16T00:28:17.042Z,7.80
2018-01-16T00:30:45.313Z,7.70
2018-01-16T00:33:13.613Z,7.70
2018-01-16T00:35:41.097Z,7.70
2018-01-16T00:38:08.652Z,7.70
2018-01-16T00:40:36.612Z,7.70
2018-01-16T00:43:04.109Z,7.70
2018-01-16T00:45:31.601Z,7.70
2018-01-16T00:47:59.906Z,7.80
2018-01-16T00:50:28.246Z,7.80
2018-01-16T00:52:56.501Z,7.70
2018-01-16T00:55:24.005Z,7.70
2018-01-16T00:57:51.494Z,7.70
2018-01-16T01:00:18.974Z,7.60
2018-01-16T01:02:46.475Z,7.60
2018-01-16T01:05:14.746Z,7.50
2018-01-16T01:07:43.020Z,7.50
2018-01-16T01:10:11.266Z,7.50
2018-01-16T01:12:38.779Z,7.50
2018-01-16T01:15:06.273Z,7.40
2018-01-16T01:17:33.769Z,7.40
2018-01-16T01:20:02.018Z,7.50
2018-01-16T01:22:29.517Z,7.50
2018-01-16T01:24:57.777Z,7.50
2018-01-16T01:27:26.058Z,7.50
2018-01-16T01:29:54.326Z,7.60
2018-01-16T01:32:22.606Z,7.60
2018-01-16T01:34:50.862Z,7.60
2018-01-16T01:37:18.345Z,7.60
2018-01-16T01:39:46.610Z,7.70
2018-01-16T01:42:14.118Z,7.70
2018-01-16T01:44:41.673Z,7.70
2018-01-16T01:47:09.154Z,7.60
2018-01-16T01:49:36.653Z,7.60
2018-01-16T01:52:04.929Z,7.60
2018-01-16T01:54:33.205Z,7.70
2018-01-16T01:57:01.461Z,7.70
2018-01-16T01:59:28.965Z,7.70
2018-01-16T02:01:56.485Z,7.70
2018-01-16T02:04:23.970Z,7.70
2018-01-16T02:06:52.238Z,7.70
2018-01-16T02:09:20.533Z,7.70
2018-01-16T02:11:48.388Z,7.70
2018-01-16T02:14:16.663Z,7.70
2018-01-16T02:16:44.917Z,7.70
2018-01-16T02:19:12.417Z,7.60
2018-01-16T02:21:39.910Z,7.60
2018-01-16T02:24:08.272Z,7.60
2018-01-16T02:26:35.757Z,7.60
2018-01-16T02:29:03.289Z,7.60
2018-01-16T02:31:30.773Z,7.60
2018-01-16T02:33:58.270Z,7.60
2018-01-16T02:36:26.517Z,7.50
2018-01-16T02:38:54.022Z,7.50
2018-01-16T02:41:21.510Z,7.50
2018-01-16T02:43:48.992Z,7.50
2018-01-16T02:46:16.489Z,7.50
2018-01-16T02:48:44.745Z,7.50
2018-01-16T02:51:12.257Z,7.50
2018-01-16T02:53:39.740Z,7.50
2018-01-16T02:56:07.237Z,7.50
2018-01-16T02:58:35.534Z,7.50
2018-01-16T03:01:03.045Z,7.50
2018-01-16T03:03:30.545Z,7.50
2018-01-16T03:05:58.030Z,7.50
2018-01-16T03:08:25.531Z,7.50
2018-01-16T03:10:53.789Z,7.50
2018-01-16T03:13:22.069Z,7.50
2018-01-16T03:15:49.554Z,7.50
2018-01-16T03:18:17.805Z,7.60
2018-01-16T03:20:45.305Z,7.60
2018-01-16T03:23:12.785Z,7.60
2018-01-16T03:25:40.289Z,7.60
2018-01-16T03:28:07.795Z,7.60
2018-01-16T03:30:35.311Z,7.60
2018-01-16T03:33:02.801Z,7.60
2018-01-16T03:35:30.332Z,7.60
2018-01-16T03:37:58.601Z,7.60
2018-01-16T03:40:26.081Z,7.60
2018-01-16T03:42:54.397Z,7.70
2018-01-16T03:45:21.879Z,7.60
2018-01-16T03:47:49.382Z,7.70
2018-01-16T03:50:17.628Z,7.70
2018-01-16T03:52:45.137Z,7.70
2018-01-16T03:55:12.656Z,7.70
2018-01-16T03:57:40.917Z,7.70
2018-01-16T04:00:08.414Z,7.60
2018-01-16T04:02:35.897Z,7.60
2018-01-16T10:26:47.853Z,8.00
2018-01-16T10:29:15.341Z,8.00
2018-01-16T10:31:43.618Z,8.20
2018-01-16T10:34:11.921Z,8.20
2018-01-16T10:36:39.397Z,8.20
2018-01-16T10:39:06.898Z,8.20
2018-01-16T10:41:34.385Z,8.20
2018-01-16T10:44:01.889Z,8.30
2018-01-16T10:46:29.403Z,8.30
2018-01-16T10:48:56.931Z,8.30
2018-01-16T10:51:24.421Z,8.30
2018-01-16T10:53:51.930Z,8.30
2018-01-16T10:56:19.436Z,8.20
2018-01-16T10:58:46.918Z,7.50
2018-01-16T11:01:14.453Z,7.10
2018-01-16T11:03:42.717Z,6.30
2018-01-16T11:06:10.985Z,6.10
2018-01-16T11:08:39.284Z,6.10
2018-01-16T11:11:06.809Z,6.10
2018-01-16T11:13:35.084Z,6.00
2018-01-16T11:16:02.633Z,6.00
2018-01-16T11:18:30.267Z,6.00
2018-01-16T11:20:57.749Z,6.00
2018-01-16T11:23:25.421Z,6.00
2018-01-16T11:25:53.041Z,5.90
2018-01-16T11:28:21.399Z,6.00
2018-01-16T11:30:49.734Z,6.10
2018-01-16T11:33:17.241Z,6.10
2018-01-16T11:35:44.736Z,6.20
2018-01-16T11:38:29.782Z,6.20
2018-01-16T11:40:57.261Z,6.20
2018-01-16T11:43:24.793Z,6.30
2018-01-16T11:45:52.297Z,6.30
2018-01-16T11:48:19.787Z,6.30
2018-01-16T11:50:48.058Z,6.30
2018-01-16T11:53:16.310Z,6.30
2018-01-16T11:55:43.813Z,6.30
2018-01-16T11:58:11.311Z,6.30
2018-01-16T12:00:38.817Z,6.30
2018-01-16T12:03:07.077Z,6.10
2018-01-16T12:05:34.572Z,6.10
2018-01-16T12:08:02.243Z,6.00
2018-01-16T12:10:29.746Z,5.70
2018-01-16T12:12:57.272Z,5.40
2018-01-16T12:15:24.761Z,5.20
2018-01-16T12:17:52.263Z,5.00
2018-01-16T12:20:20.515Z,4.80
2018-01-16T12:22:48.025Z,4.80
2018-01-16T12:25:15.539Z,4.80
2018-01-16T12:27:43.797Z,4.70
2018-01-16T12:30:11.301Z,4.60
2018-01-16T12:32:38.785Z,4.70
2018-01-16T12:35:06.288Z,4.60
2018-01-16T12:37:34.545Z,4.50
2018-01-16T12:40:02.029Z,4.50
2018-01-16T12:42:30.298Z,4.40
2018-01-16T12:44:57.798Z,4.40
2018-01-16T12:47:25.294Z,4.30
2018-01-16T12:49:52.814Z,4.20
2018-01-16T12:52:20.318Z,4.30
2018-01-16T12:54:47.801Z,4.30
2018-01-16T12:57:16.049Z,4.40
2018-01-16T12:59:43.549Z,4.30
2018-01-16T13:02:11.065Z,4.50
2018-01-16T13:04:38.581Z,4.50
2018-01-16T13:07:06.072Z,4.60
2018-01-16T13:09:33.620Z,4.60
2018-01-16T13:12:01.106Z,4.70
2018-01-16T13:14:28.614Z,4.80
2018-01-16T13:16:56.109Z,4.90
2018-01-16T13:19:23.598Z,4.90
2018-01-16T13:21:51.865Z,4.90
2018-01-16T13:24:19.377Z,4.90
2018-01-16T13:26:46.883Z,4.90
2018-01-16T13:29:14.390Z,4.90
2018-01-16T13:31:41.877Z,4.90
2018-01-16T13:34:09.381Z,4.90
2018-01-16T13:36:37.637Z,4.70
2018-01-16T13:39:05.136Z,4.70
2018-01-16T13:41:32.639Z,4.70
2018-01-16T13:44:00.157Z,4.60
2018-01-16T13:46:27.666Z,4.60
2018-01-16T13:48:55.171Z,4.50
2018-01-16T13:51:22.673Z,4.40
2018-01-16T13:53:50.156Z,4.20
2018-01-16T13:56:18.425Z,4.20
2018-01-16T13:58:46.682Z,4.20
2018-01-16T14:01:14.181Z,4.20
2018-01-16T14:03:42.484Z,4.50
2018-01-16T14:06:10.706Z,4.70
2018-01-16T14:08:38.205Z,4.70
2018-01-16T14:11:05.689Z,4.70
2018-01-16T14:13:33.213Z,4.80
2018-01-16T14:16:01.477Z,5.00
2018-01-16T14:18:29.754Z,5.20
2018-01-16T14:20:58.001Z,5.30
2018-01-16T14:23:25.493Z,5.30
2018-01-16T14:25:53.017Z,5.40
2018-01-16T14:28:20.502Z,5.60
2018-01-16T14:30:48.780Z,6.00
2018-01-16T14:33:17.030Z,6.10
2018-01-16T14:35:44.539Z,6.10
2018-01-16T14:38:12.076Z,6.00
2018-01-16T14:40:39.606Z,5.90
2018-01-16T14:43:07.127Z,5.90
2018-01-16T14:45:34.606Z,5.90
2018-01-16T14:48:02.122Z,5.90
2018-01-16T14:50:30.405Z,5.70
2018-01-16T14:52:57.986Z,5.60
2018-01-16T14:55:25.469Z,5.70
2018-01-16T14:57:52.962Z,5.60
2018-01-16T15:00:21.237Z,5.50
2018-01-16T15:02:48.717Z,5.50
2018-01-16T15:05:16.221Z,5.50
2018-01-16T15:07:43.703Z,5.40
2018-01-16T15:10:11.243Z,5.30
2018-01-16T15:12:38.733Z,5.20
2018-01-16T15:15:07.005Z,5.00
2018-01-16T15:17:34.488Z,4.90
2018-01-16T15:20:01.974Z,4.90
2018-01-16T15:22:29.498Z,4.90
2018-01-16T15:24:57.776Z,4.90
2018-01-16T15:27:26.057Z,4.90
2018-01-16T15:29:53.545Z,4.90
2018-01-16T15:32:21.046Z,4.90
2018-01-16T15:34:48.533Z,5.00
2018-01-16T15:37:16.829Z,5.10
2018-01-16T15:39:44.321Z,5.10
2018-01-16T15:42:11.822Z,5.20
2018-01-16T15:44:40.096Z,5.30
2018-01-16T15:47:08.350Z,5.30
2018-01-16T15:49:35.881Z,5.20
2018-01-16T15:52:03.364Z,5.20
2018-01-16T15:54:30.883Z,5.00
2018-01-16T15:56:58.373Z,5.00
2018-01-16T15:59:25.860Z,4.90
2018-01-16T16:01:54.126Z,4.80
2018-01-16T16:04:22.389Z,4.80
2018-01-16T16:06:49.898Z,4.80
2018-01-16T16:09:17.393Z,4.70
2018-01-16T16:11:44.890Z,4.70
2018-01-16T16:14:13.142Z,4.80
2018-01-16T16:16:40.638Z,4.70
2018-01-16T16:19:08.145Z,4.80
2018-01-16T16:21:35.657Z,4.80
2018-01-16T16:24:03.917Z,4.90
2018-01-16T16:26:32.168Z,4.90
2018-01-16T16:28:59.661Z,4.90
2018-01-16T16:31:27.923Z,5.00
2018-01-16T16:33:56.571Z,5.00
2018-01-16T16:36:24.062Z,5.00
2018-01-16T16:38:51.557Z,5.10
2018-01-16T16:41:19.081Z,5.10
2018-01-16T16:43:47.342Z,5.10
2018-01-16T16:46:14.846Z,5.10
2018-01-16T16:48:42.337Z,5.10
2018-01-16T16:51:09.852Z,5.10
2018-01-16T16:53:38.101Z,5.10
2018-01-16T16:56:05.634Z,5.10
2018-01-16T16:58:33.134Z,5.10
2018-01-16T17:01:01.395Z,5.20
2018-01-16T17:03:28.929Z,5.10
2018-01-16T17:05:56.451Z,5.20
2018-01-16T17:08:24.022Z,5.20
2018-01-16T17:10:51.514Z,5.30
2018-01-16T17:13:20.025Z,5.30
2018-01-16T17:15:49.350Z,5.30
2018-01-16T17:18:16.861Z,5.30
2018-01-16T17:20:44.382Z,5.30
2018-01-16T17:23:17.039Z,5.30
2018-01-16T17:25:46.309Z,5.30
2018-01-16T17:28:13.807Z,5.30
2018-01-16T17:30:41.325Z,5.40
2018-01-16T17:33:08.838Z,5.30
2018-01-16T17:35:36.343Z,5.20
2018-01-16T17:38:03.860Z,5.20
2018-01-16T17:40:31.378Z,5.20
2018-01-16T17:42:59.634Z,5.00
2018-01-16T17:45:27.127Z,4.90
2018-01-16T17:47:55.395Z,4.90
2018-01-16T17:50:23.645Z,5.00
2018-01-16T17:52:51.241Z,4.90
2018-01-16T17:55:19.505Z,4.90
2018-01-16T17:57:47.781Z,4.90
2018-01-16T18:00:16.092Z,4.80
2018-01-16T18:02:43.598Z,4.80
2018-01-16T18:05:11.089Z,4.90
2018-01-16T18:07:39.360Z,4.80
2018-01-16T18:10:07.612Z,4.70
2018-01-16T18:12:35.112Z,4.70
2018-01-16T18:15:03.386Z,4.70
2018-01-16T18:17:30.893Z,4.70
2018-01-16T18:19:58.385Z,4.70
2018-01-16T18:22:25.889Z,4.70
2018-01-16T18:24:53.478Z,4.80
2018-01-16T18:27:21.781Z,4.80
2018-01-16T18:29:49.346Z,4.80
2018-01-16T18:32:17.614Z,4.90
2018-01-16T18:34:45.917Z,4.90
2018-01-16T18:38:42.713Z,4.90
2018-01-16T18:41:10.294Z,4.90
2018-01-16T18:43:37.810Z,5.00
2018-01-16T18:46:05.311Z,5.00
2018-01-16T18:48:32.835Z,5.00
2018-01-16T18:51:00.383Z,4.90
2018-01-16T18:53:28.003Z,4.90
2018-01-16T18:55:56.269Z,4.90
2018-01-16T18:58:24.543Z,5.00
2018-01-16T19:00:52.038Z,4.90
2018-01-16T19:03:19.526Z,4.90
2018-01-16T19:05:47.048Z,4.90
2018-01-16T19:08:15.306Z,4.90
2018-01-16T19:10:42.902Z,4.90
2018-01-16T19:13:10.419Z,4.90
2018-01-16T19:15:37.959Z,4.80
2018-01-16T19:18:05.446Z,4.80
2018-01-16T19:20:33.717Z,4.70
2018-01-16T19:23:01.229Z,4.70
2018-01-16T19:25:28.750Z,4.70
2018-01-16T19:27:57.046Z,4.70
2018-01-16T19:30:24.581Z,4.70
2018-01-16T19:32:52.887Z,4.70
2018-01-16T19:35:20.412Z,4.70
2018-01-16T19:37:48.707Z,4.60
2018-01-16T19:40:16.209Z,4.60
2018-01-16T19:42:43.725Z,4.60
2018-01-16T19:45:12.033Z,4.70
2018-01-16T19:47:39.534Z,4.70
2018-01-16T19:50:07.024Z,4.80
2018-01-16T19:52:34.554Z,4.80
2018-01-16T19:55:02.042Z,4.80
2018-01-16T19:57:29.544Z,4.80
2018-01-16T19:59:57.031Z,4.80
2018-01-16T20:02:24.514Z,4.80
2018-01-16T20:04:52.014Z,4.80
2018-01-16T20:07:19.505Z,4.80
2018-01-16T20:09:47.012Z,4.80
2018-01-16T20:12:14.513Z,4.70
2018-01-16T20:14:42.030Z,4.70
2018-01-16T20:17:09.530Z,4.70
2018-01-16T20:19:37.034Z,4.80
2018-01-16T20:22:05.289Z,4.90
2018-01-16T20:24:33.569Z,4.90
2018-01-16T20:27:01.826Z,4.90
2018-01-16T20:29:29.336Z,4.80
2018-01-16T20:31:56.998Z,4.90
2018-01-16T20:34:24.511Z,4.90
2018-01-16T20:36:52.020Z,4.80
2018-01-16T20:39:19.546Z,4.90
2018-01-16T20:41:47.837Z,4.80
2018-01-16T20:44:15.344Z,4.80
2018-01-16T20:46:42.844Z,4.80
2018-01-16T20:49:11.121Z,4.70
2018-01-16T20:51:39.386Z,4.70
2018-01-16T20:54:07.665Z,4.70
2018-01-16T20:56:35.925Z,4.70
2018-01-16T20:59:03.469Z,4.70
2018-01-16T21:01:30.985Z,4.70
2018-01-16T21:03:58.482Z,4.70
2018-01-16T21:06:25.988Z,4.70
2018-01-16T21:08:54.245Z,4.80
2018-01-16T21:11:21.753Z,4.70
2018-01-16T21:13:49.268Z,4.80
2018-01-16T21:16:17.561Z,4.70
2018-01-16T21:18:45.832Z,4.70
2018-01-16T21:21:14.190Z,4.70
2018-01-16T21:23:41.822Z,4.70
2018-01-16T21:26:09.318Z,4.70
2018-01-16T21:28:37.592Z,4.70
2018-01-16T21:31:05.079Z,4.70
2018-01-16T21:33:32.589Z,4.60
2018-01-16T21:36:00.076Z,4.60
2018-01-16T21:38:28.338Z,4.60
2018-01-16T21:40:56.607Z,4.60
2018-01-16T21:43:24.226Z,4.50
2018-01-16T21:45:51.866Z,4.50
2018-01-16T21:48:19.380Z,4.60
2018-01-16T21:50:46.951Z,4.50
2018-01-16T21:53:15.998Z,4.50
2018-01-16T21:55:43.493Z,4.50
2018-01-16T21:58:11.006Z,4.60
2018-01-16T22:00:38.509Z,4.60
2018-01-16T22:03:05.997Z,4.60
2018-01-16T22:05:34.269Z,4.60
2018-01-16T22:08:01.769Z,4.70
2018-01-16T22:10:29.277Z,4.70
2018-01-16T22:12:56.759Z,4.70
2018-01-16T22:15:25.050Z,4.80
2018-01-16T22:17:52.538Z,4.80
2018-01-16T22:20:20.046Z,4.80
2018-01-16T22:22:48.297Z,4.90
2018-01-16T22:25:15.794Z,4.80
2018-01-16T22:27:44.062Z,4.90
2018-01-16T22:30:12.341Z,5.00
2018-01-16T22:32:40.604Z,5.00
2018-01-16T22:35:08.109Z,5.00
2018-01-16T22:37:35.595Z,5.00
2018-01-16T22:40:03.149Z,5.00
2018-01-16T22:42:30.641Z,5.00
2018-01-16T22:44:58.888Z,5.00
2018-01-16T22:47:26.396Z,5.00
2018-01-16T22:49:54.665Z,5.10
2018-01-16T22:52:22.929Z,5.10
2018-01-16T22:54:51.186Z,5.10
2018-01-16T22:57:18.705Z,5.10
2018-01-16T22:59:46.197Z,5.20
2018-01-16T23:02:13.687Z,5.20
2018-01-16T23:04:41.953Z,5.30
2018-01-16T23:07:09.458Z,5.30
2018-01-16T23:09:36.949Z,5.30
2018-01-16T23:12:04.426Z,5.40
2018-01-16T23:14:31.933Z,5.30
2018-01-16T23:16:59.421Z,5.40
2018-01-16T23:19:26.897Z,5.40
2018-01-16T23:21:54.393Z,5.30
2018-01-16T23:24:21.874Z,5.40
2018-01-16T23:26:49.386Z,5.40
2018-01-16T23:29:17.649Z,5.30
2018-01-16T23:31:45.129Z,5.30
2018-01-16T23:34:13.404Z,5.40
2018-01-16T23:36:41.652Z,5.30
2018-01-16T23:39:09.153Z,5.30
2018-01-16T23:41:36.632Z,5.30
2018-01-16T23:44:04.141Z,5.30
2018-01-16T23:46:31.621Z,5.30
2018-01-16T23:48:59.868Z,5.20
2018-01-16T23:51:27.375Z,5.20
2018-01-16T23:53:54.858Z,5.20
2018-01-16T23:56:22.365Z,5.20
2018-01-16T23:58:50.645Z,5.20
